Time,TemperatureF,DewpointF,PressureIn,WindDirection,WindDirectionDegrees,WindSpeedMPH,WindSpeedGustMPH,Humidity,HourlyPrecipIn,Conditions,Clouds,dailyrainin,SoftwareType,DateUTC
2013-01-07 14:13:00,-999.0,-99.9,-100.00,North,-999,-999.0,-999.0,-999,-99.99,,,-99.99,Acu-Link.com,2013-01-07 21:13:00,
2013-01-07 14:14:00,32.5,7.3,29.87,SW,225,2.2,-999.0,34,-99.99,,,0.01,Acu-Link.com,2013-01-07 21:14:00,
2013-01-07 14:29:00,35.2,9.0,29.87,SW,225,2.7,-999.0,33,-99.99,,,0.01,Acu-Link.com,2013-01-07 21:29:00,
2013-01-07 14:44:00,34.0,8.0,29.87,SW,225,2.7,-999.0,33,-99.99,,,0.01,Acu-Link.com,2013-01-07 21:44:00,
2013-01-07 15:00:00,32.4,9.1,29.86,SW,225,1.7,-999.0,37,-99.99,,,0.01,Acu-Link.com,2013-01-07 22:00:00,
2013-01-07 15:15:00,33.1,10.3,29.86,SW,225,2.7,-999.0,38,-99.99,,,0.01,Acu-Link.com,2013-01-07 22:15:00,
2013-01-07 15:30:00,31.6,10.1,29.85,SW,225,2.2,-999.0,40,-99.99,,,0.01,Acu-Link.com,2013-01-07 22:30:00,
2013-01-07 15:45:00,33.3,11.6,29.87,SW,225,2.7,-999.0,40,-99.99,,,0.01,Acu-Link.com,2013-01-07 22:45:00,
2013-01-07 16:01:00,36.0,12.9,29.86,SW,225,0.0,-999.0,38,-99.99,,,0.01,Acu-Link.com,2013-01-07 23:01:00,
2013-01-07 16:16:00,31.6,9.5,29.86,SW,225,1.7,-999.0,39,-99.99,,,0.01,Acu-Link.com,2013-01-07 23:16:00,
2013-01-07 16:31:00,30.9,10.0,29.86,SW,225,0.0,-999.0,41,-99.99,,,0.01,Acu-Link.com,2013-01-07 23:31:00,
2013-01-07 16:47:00,29.3,10.1,29.86,SW,225,0.0,-999.0,44,-99.99,,,0.01,Acu-Link.com,2013-01-07 23:47:00,
2013-01-07 17:02:00,27.7,9.7,29.86,SW,225,3.7,-999.0,46,-99.99,,,0.01,Acu-Link.com,2013-01-08 00:02:00,
2013-01-07 17:17:00,24.6,9.1,29.87,South,180,2.2,-999.0,51,-99.99,,,0.01,Acu-Link.com,2013-01-08 00:17:00,
2013-01-07 17:33:00,24.8,9.7,29.89,South,180,4.2,-999.0,52,-99.99,,,0.01,Acu-Link.com,2013-01-08 00:33:00,
2013-01-07 17:48:00,23.7,8.7,29.88,South,180,2.7,-999.0,52,-99.99,,,0.01,Acu-Link.com,2013-01-08 00:48:00,
2013-01-07 18:03:00,22.6,7.7,29.87,South,180,3.7,-999.0,52,-99.99,,,0.01,Acu-Link.com,2013-01-08 01:03:00,
2013-01-07 18:18:00,20.7,6.3,29.90,South,180,2.2,-999.0,53,-99.99,,,0.01,Acu-Link.com,2013-01-08 01:18:00,
2013-01-07 18:34:00,19.8,6.3,29.89,South,180,0.0,-999.0,55,-99.99,,,0.01,Acu-Link.com,2013-01-08 01:34:00,
2013-01-07 18:49:00,19.6,6.1,29.90,South,180,2.7,-999.0,55,-99.99,,,0.01,Acu-Link.com,2013-01-08 01:49:00,
2013-01-07 19:04:00,17.6,5.0,29.90,South,180,1.7,-999.0,57,-99.99,,,0.01,Acu-Link.com,2013-01-08 02:04:00,
2013-01-07 19:20:00,16.5,5.8,29.89,South,180,1.7,-999.0,62,-99.99,,,0.01,Acu-Link.com,2013-01-08 02:20:00,
2013-01-07 19:36:00,14.7,5.1,29.89,South,180,1.7,-999.0,65,-99.99,,,0.01,Acu-Link.com,2013-01-08 02:36:00,
2013-01-07 19:52:00,14.4,5.5,29.88,South,180,2.2,-999.0,67,-99.99,,,0.01,Acu-Link.com,2013-01-08 02:52:00,
2013-01-07 20:07:00,12.6,3.1,29.89,South,180,0.0,-999.0,65,-99.99,,,0.01,Acu-Link.com,2013-01-08 03:07:00,
2013-01-07 20:22:00,11.7,3.2,29.89,South,180,2.2,-999.0,68,-99.99,,,0.01,Acu-Link.com,2013-01-08 03:22:00,
2013-01-07 20:38:00,11.1,3.6,29.90,South,180,2.7,-999.0,71,-99.99,,,0.01,Acu-Link.com,2013-01-08 03:38:00,
2013-01-07 20:53:00,10.6,2.8,29.88,South,180,0.0,-999.0,70,-99.99,,,0.01,Acu-Link.com,2013-01-08 03:53:00,
2013-01-07 21:08:00,9.5,1.4,29.88,South,180,0.0,-999.0,69,-99.99,,,0.01,Acu-Link.com,2013-01-08 04:08:00,
2013-01-07 21:24:00,9.5,2.0,29.88,South,180,1.7,-999.0,71,-99.99,,,0.01,Acu-Link.com,2013-01-08 04:24:00,
2013-01-07 21:39:00,9.7,2.8,29.88,South,180,0.0,-999.0,73,-99.99,,,0.01,Acu-Link.com,2013-01-08 04:39:00,
2013-01-07 21:54:00,8.6,0.9,29.87,South,180,2.2,-999.0,70,-99.99,,,0.01,Acu-Link.com,2013-01-08 04:54:00,
2013-01-07 22:10:00,9.1,1.9,29.85,South,180,0.0,-999.0,72,-99.99,,,0.01,Acu-Link.com,2013-01-08 05:10:00,
2013-01-07 22:25:00,9.0,2.1,29.85,South,180,0.0,-999.0,73,-99.99,,,0.01,Acu-Link.com,2013-01-08 05:25:00,
2013-01-07 22:40:00,7.7,0.3,29.85,South,180,0.0,-999.0,71,-99.99,,,0.01,Acu-Link.com,2013-01-08 05:40:00,
2013-01-07 22:56:00,6.4,-0.4,29.86,South,180,3.7,-999.0,73,-99.99,,,0.01,Acu-Link.com,2013-01-08 05:56:00,
2013-01-07 23:11:00,6.6,0.1,29.87,South,180,2.2,-999.0,74,-99.99,,,0.01,Acu-Link.com,2013-01-08 06:11:00,
2013-01-07 23:26:00,5.7,-1.1,29.88,South,180,2.7,-999.0,73,-99.99,,,0.01,Acu-Link.com,2013-01-08 06:26:00,
2013-01-07 23:41:00,5.7,-1.1,29.88,South,180,2.2,-999.0,73,-99.99,,,0.01,Acu-Link.com,2013-01-08 06:41:00,
2013-01-07 23:57:00,7.3,0.8,29.89,South,180,3.7,-999.0,74,-99.99,,,0.01,Acu-Link.com,2013-01-08 06:57:00,